Time;durP1;ratioP1;P1;durP2;ratioP2;P2;SDS_P1;SDS_P2;PMS_P1;PMS_P2;Temp;Humidity;BMP_temperature;BMP_pressure;BME280_temperature;BME280_humidity;BME280_pressure;Samples;Min_cycle;Max_cycle;Signal;HPM_P1;HPM_P2
2022/11/28 00:01:01;;;;;;;10.00;5.35;;;6.60;99.90;;;;;;4985350;28;20069;-69
2022/11/28 00:03:27;;;;;;;8.82;5.25;;;6.60;99.90;;;;;;4983880;28;20069;-70
2022/11/28 00:05:53;;;;;;;10.52;5.15;;;6.60;99.90;;;;;;4976224;28;20337;-70
2022/11/28 00:08:18;;;;;;;7.93;5.00;;;6.60;99.90;;;;;;4985256;28;20333;-69
2022/11/28 00:10:44;;;;;;;9.87;5.13;;;6.60;99.90;;;;;;4978712;28;20046;-70
2022/11/28 00:13:10;;;;;;;9.57;5.63;;;6.70;99.90;;;;;;4975719;28;20085;-70
2022/11/28 00:15:36;;;;;;;9.93;5.13;;;6.60;99.90;;;;;;4982119;28;20580;-70
2022/11/28 00:18:01;;;;;;;9.90;5.23;;;6.60;99.90;;;;;;4986756;28;20129;-70
2022/11/28 00:20:29;;;;;;;11.10;5.23;;;6.60;99.90;;;;;;4969775;28;20136;-70
2022/11/28 00:22:54;;;;;;;10.68;5.00;;;6.60;99.90;;;;;;4984884;28;20559;-70
2022/11/28 00:25:20;;;;;;;10.97;6.20;;;6.70;99.90;;;;;;4985524;28;20137;-70
2022/11/28 00:27:45;;;;;;;10.33;5.13;;;6.70;99.90;;;;;;4983169;28;20046;-70
2022/11/28 00:30:11;;;;;;;7.87;4.57;;;6.60;99.90;;;;;;4988913;28;20038;-70
2022/11/28 00:32:37;;;;;;;7.00;4.20;;;6.70;99.90;;;;;;4983645;28;20046;-71
2022/11/28 00:35:03;;;;;;;12.00;4.97;;;6.70;99.90;;;;;;4984076;28;20046;-70
2022/11/28 00:37:29;;;;;;;12.15;5.38;;;6.70;99.90;;;;;;4975541;28;20050;-70
2022/11/28 00:39:54;;;;;;;8.93;4.70;;;6.60;99.90;;;;;;4968764;28;20153;-70
2022/11/28 00:42:21;;;;;;;11.13;5.07;;;6.60;99.90;;;;;;4979520;28;20042;-70
2022/11/28 00:44:50;;;;;;;8.63;5.00;;;6.60;99.90;;;;;;4980864;28;20125;-70
2022/11/28 00:47:15;;;;;;;9.48;5.10;;;6.60;99.90;;;;;;4980491;28;20100;-70
2022/11/28 00:49:41;;;;;;;10.02;5.28;;;6.60;99.90;;;;;;4978348;28;20401;-70
2022/11/28 00:52:07;;;;;;;12.38;5.18;;;6.60;99.90;;;;;;4973681;28;20458;-70
2022/11/28 00:54:33;;;;;;;9.00;5.20;;;6.60;99.90;;;;;;4981267;28;20502;-70
2022/11/28 00:56:59;;;;;;;10.30;5.28;;;6.60;99.90;;;;;;4983657;28;20606;-70
2022/11/28 00:59:25;;;;;;;8.73;5.05;;;6.60;99.90;;;;;;4991450;28;20121;-70
2022/11/28 01:01:50;;;;;;;10.13;4.93;;;6.60;99.90;;;;;;4981364;28;20117;-70
2022/11/28 01:04:16;;;;;;;9.20;4.80;;;6.60;99.90;;;;;;4986754;28;20049;-70
2022/11/28 01:06:45;;;;;;;8.88;5.07;;;6.60;99.90;;;;;;4982215;28;20053;-70
2022/11/28 01:09:14;;;;;;;12.07;5.50;;;6.60;99.90;;;;;;4972941;28;20054;-70
2022/11/28 01:11:41;;;;;;;10.80;4.93;;;6.60;99.90;;;;;;4971903;28;20038;-69
2022/11/28 01:14:08;;;;;;;10.13;6.07;;;6.60;99.90;;;;;;4977484;28;20065;-70
2022/11/28 01:16:34;;;;;;;11.95;5.10;;;6.50;99.90;;;;;;4944422;28;1099908;-69
2022/11/28 01:18:59;;;;;;;9.17;4.90;;;6.60;99.90;;;;;;5000306;28;20049;-69
2022/11/28 01:21:25;;;;;;;8.80;4.93;;;6.60;99.90;;;;;;4986227;28;20107;-69
2022/11/28 01:23:51;;;;;;;9.43;5.32;;;6.60;99.90;;;;;;4987731;28;20188;-70
2022/11/28 01:26:19;;;;;;;7.93;4.47;;;6.60;99.90;;;;;;4982149;28;20038;-69
2022/11/28 01:28:45;;;;;;;9.25;5.05;;;6.60;99.90;;;;;;4990829;28;20069;-70
2022/11/28 01:31:14;;;;;;;10.88;5.35;;;6.60;99.90;;;;;;4980596;28;20042;-70
2022/11/28 01:33:39;;;;;;;10.05;5.13;;;6.60;99.90;;;;;;4983649;28;20133;-70
2022/11/28 01:36:05;;;;;;;9.10;5.13;;;6.60;99.90;;;;;;4969877;28;20118;-70
2022/11/28 01:38:32;;;;;;;12.63;5.53;;;6.60;99.90;;;;;;4986078;28;20542;-70
2022/11/28 01:40:58;;;;;;;11.00;5.65;;;6.60;99.90;;;;;;4980390;28;20203;-70
2022/11/28 01:43:24;;;;;;;8.67;5.47;;;6.60;99.90;;;;;;4985025;28;20118;-70
2022/11/28 01:45:50;;;;;;;8.77;5.25;;;6.60;99.90;;;;;;4975739;28;20039;-70
2022/11/28 01:48:31;;;;;;;9.45;5.35;;;6.60;99.90;;;;;;4977334;28;20079;-70
2022/11/28 01:51:04;;;;;;;13.50;5.60;;;6.60;99.90;;;;;;4980955;28;20152;-70
2022/11/28 01:53:31;;;;;;;8.70;5.13;;;6.60;99.90;;;;;;4992776;28;20106;-69
2022/11/28 01:56:02;;;;;;;10.63;5.93;;;6.60;99.90;;;;;;4983203;28;20349;-70
2022/11/28 01:58:29;;;;;;;11.48;5.82;;;6.60;99.90;;;;;;4985400;28;20072;-70
2022/11/28 02:00:55;;;;;;;8.82;5.35;;;6.60;99.90;;;;;;4980401;28;20396;-71
2022/11/28 02:03:25;;;;;;;10.55;5.80;;;6.60;99.90;;;;;;4982652;28;20160;-70
2022/11/28 02:05:52;;;;;;;9.52;5.60;;;6.60;99.90;;;;;;4982110;28;20526;-70
2022/11/28 02:08:18;;;;;;;11.18;6.15;;;6.70;99.90;;;;;;4985482;28;20046;-70
2022/11/28 02:11:24;;;;;;;9.10;5.30;;;6.60;99.90;;;;;;4975440;28;20061;-70
2022/11/28 02:14:08;;;;;;;9.25;5.13;;;6.70;99.90;;;;;;4980011;28;20296;-70
2022/11/28 02:16:49;;;;;;;9.55;5.88;;;6.60;99.90;;;;;;4990862;28;20038;-70
2022/11/28 02:19:38;;;;;;;8.68;5.22;;;6.60;99.90;;;;;;4986957;28;20060;-72
2022/11/28 02:22:07;;;;;;;9.65;5.40;;;6.70;99.90;;;;;;4983397;28;20052;-70
2022/11/28 02:25:17;;;;;;;9.43;5.47;;;6.60;99.90;;;;;;4984053;28;20133;-70
2022/11/28 02:28:10;;;;;;;9.02;5.30;;;6.70;99.90;;;;;;4983293;28;20526;-70
2022/11/28 02:30:42;;;;;;;9.80;5.40;;;6.70;99.90;;;;;;4988394;28;20504;-70
2022/11/28 02:33:11;;;;;;;9.48;5.15;;;6.70;99.90;;;;;;4987974;28;20038;-70
2022/11/28 02:35:54;;;;;;;9.20;6.03;;;6.70;99.90;;;;;;4979331;28;20472;-70
2022/11/28 02:38:55;;;;;;;9.23;5.72;;;6.70;99.90;;;;;;4981995;28;20088;-70
2022/11/28 02:41:45;;;;;;;10.18;5.55;;;6.70;99.90;;;;;;4944112;28;20050;-70
2022/11/28 02:44:16;;;;;;;9.90;5.70;;;6.80;99.90;;;;;;4974315;28;20054;-70
2022/11/28 02:46:51;;;;;;;9.35;5.60;;;6.70;99.90;;;;;;4981535;28;20238;-70
2022/11/28 02:49:35;;;;;;;12.32;6.25;;;6.80;99.90;;;;;;4988808;28;20044;-70
2022/11/28 02:52:20;;;;;;;11.10;6.28;;;6.80;99.90;;;;;;4978266;28;20038;-70
2022/11/28 02:54:49;;;;;;;10.20;6.05;;;6.80;99.90;;;;;;4969678;28;20050;-70
2022/11/28 02:57:15;;;;;;;10.55;6.15;;;6.80;99.90;;;;;;4987124;28;20064;-70
2022/11/28 02:59:41;;;;;;;11.03;6.47;;;6.80;99.90;;;;;;4976244;28;20042;-70
2022/11/28 03:02:23;;;;;;;10.23;6.00;;;6.80;99.90;;;;;;4980138;28;20035;-70
2022/11/28 03:05:16;;;;;;;12.27;6.15;;;6.80;99.90;;;;;;4991094;28;20394;-70
2022/11/28 03:08:42;;;;;;;11.60;6.68;;;6.90;99.90;;;;;;4985926;28;20469;-70
2022/11/28 03:11:25;;;;;;;12.27;5.68;;;6.80;99.90;;;;;;4935559;28;20071;-70
2022/11/28 03:14:17;;;;;;;11.52;6.22;;;6.90;99.90;;;;;;4945193;28;20050;-70
2022/11/28 03:16:55;;;;;;;11.32;6.82;;;6.90;99.90;;;;;;4969438;28;20050;-70
2022/11/28 03:19:26;;;;;;;10.95;6.00;;;6.90;99.90;;;;;;4994874;28;20143;-70
2022/11/28 03:22:06;;;;;;;10.38;6.30;;;6.90;99.90;;;;;;4976569;28;20055;-70
2022/11/28 03:24:41;;;;;;;11.02;7.03;;;6.90;99.90;;;;;;4977986;28;20431;-70
2022/11/28 03:27:16;;;;;;;12.23;6.45;;;6.90;99.90;;;;;;4981714;28;20118;-70
2022/11/28 03:29:47;;;;;;;10.18;6.75;;;6.90;99.90;;;;;;4982574;28;20041;-70
2022/11/28 03:32:23;;;;;;;10.77;6.00;;;6.90;99.90;;;;;;4986072;28;20338;-70
2022/11/28 03:34:56;;;;;;;12.63;6.40;;;6.90;99.90;;;;;;4966118;28;20046;-70
2022/11/28 03:37:39;;;;;;;8.85;5.70;;;6.90;99.90;;;;;;4975345;28;20268;-70
2022/11/28 03:40:14;;;;;;;10.18;6.00;;;7.00;99.90;;;;;;4987563;28;20057;-70
2022/11/28 03:42:48;;;;;;;15.00;6.55;;;7.00;99.90;;;;;;4990396;28;20050;-70
2022/11/28 03:45:22;;;;;;;11.25;6.53;;;7.00;99.90;;;;;;4971927;28;20093;-70
2022/11/28 03:47:56;;;;;;;8.88;5.65;;;7.00;99.90;;;;;;4981920;28;20034;-70
2022/11/28 03:50:32;;;;;;;10.50;5.97;;;6.90;99.90;;;;;;4987737;28;20043;-70
2022/11/28 03:53:04;;;;;;;9.27;5.47;;;7.00;99.90;;;;;;4981795;28;20042;-70
2022/11/28 03:55:38;;;;;;;10.18;6.38;;;7.00;99.90;;;;;;4983577;28;20097;-70
2022/11/28 03:58:20;;;;;;;9.73;5.57;;;7.00;99.90;;;;;;4991375;28;20078;-71
2022/11/28 04:01:06;;;;;;;12.25;6.57;;;7.10;99.90;;;;;;4976535;28;20049;-70
2022/11/28 04:03:39;;;;;;;10.20;5.80;;;7.10;99.90;;;;;;4980535;28;20047;-70
2022/11/28 04:06:18;;;;;;;11.88;5.55;;;7.10;99.90;;;;;;4983668;28;20117;-70
2022/11/28 04:08:51;;;;;;;10.25;5.65;;;7.10;99.90;;;;;;4996648;28;20045;-70
2022/11/28 04:11:28;;;;;;;9.38;5.53;;;7.10;99.90;;;;;;4986870;28;20043;-70
2022/11/28 04:13:59;;;;;;;11.60;5.47;;;7.20;99.90;;;;;;4987451;28;20053;-70
2022/11/28 04:16:33;;;;;;;8.95;5.45;;;7.20;99.90;;;;;;4986706;28;20053;-70
2022/11/28 04:19:21;;;;;;;8.95;5.57;;;7.20;99.90;;;;;;4981529;28;20061;-70
2022/11/28 04:21:53;;;;;;;7.85;4.80;;;7.20;99.90;;;;;;4984247;28;20050;-70
2022/11/28 04:24:24;;;;;;;8.90;5.38;;;7.20;99.90;;;;;;4989226;28;20544;-70
2022/11/28 04:27:12;;;;;;;10.00;5.30;;;7.30;99.90;;;;;;4976036;28;20046;-70
2022/11/28 04:29:42;;;;;;;;;;;7.30;99.90;;;;;;4991347;28;20050;-70
2022/11/28 04:32:10;;;;;;;8.77;4.93;;;7.30;99.90;;;;;;4985320;28;19932;-70
2022/11/28 04:34:39;;;;;;;7.97;4.90;;;7.30;99.90;;;;;;4985327;28;20531;-71
2022/11/28 04:37:06;;;;;;;9.85;5.45;;;7.30;99.90;;;;;;4998605;28;20192;-70
2022/11/28 04:39:33;;;;;;;7.95;4.97;;;7.40;99.90;;;;;;4989528;28;20097;-70
2022/11/28 04:42:01;;;;;;;;;;;7.40;99.90;;;;;;4989971;28;20065;-70
2022/11/28 04:44:45;;;;;;;12.45;4.72;;;7.40;99.90;;;;;;4990090;28;20265;-70
2022/11/28 04:47:11;;;;;;;10.13;5.45;;;7.40;99.90;;;;;;4987806;28;20049;-70
2022/11/28 04:49:37;;;;;;;8.75;5.15;;;7.40;99.90;;;;;;4983890;28;20269;-70
2022/11/28 04:52:13;;;;;;;7.50;5.40;;;7.40;99.90;;;;;;4973263;28;20054;-70
2022/11/28 04:54:57;;;;;;;9.00;4.40;;;7.40;99.90;;;;;;4981016;28;20046;-70
2022/11/28 04:57:31;;;;;;;8.30;4.90;;;7.50;99.90;;;;;;4982310;28;20050;-71
2022/11/28 04:59:59;;;;;;;9.55;5.32;;;7.40;99.90;;;;;;4991896;28;20066;-70
2022/11/28 05:02:27;;;;;;;8.10;5.38;;;7.40;99.90;;;;;;4984585;28;20393;-70
2022/11/28 05:04:54;;;;;;;9.55;5.40;;;7.50;99.90;;;;;;4982862;28;20081;-70
2022/11/28 05:07:21;;;;;;;8.93;5.65;;;7.50;99.90;;;;;;4984801;28;20604;-70
2022/11/28 05:09:47;;;;;;;6.53;4.55;;;7.50;99.90;;;;;;4983636;28;20133;-71
2022/11/28 05:12:12;;;;;;;10.70;4.75;;;7.50;99.90;;;;;;4989049;28;20522;-70
2022/11/28 05:14:39;;;;;;;10.67;5.03;;;7.50;99.90;;;;;;4991253;28;20084;-70
2022/11/28 05:17:05;;;;;;;6.70;4.18;;;7.60;99.90;;;;;;4983007;28;20051;-71
2022/11/28 05:19:31;;;;;;;7.40;4.53;;;7.50;99.90;;;;;;4981080;28;20142;-70
2022/11/28 05:21:56;;;;;;;6.67;4.60;;;7.50;99.90;;;;;;4985540;28;20129;-70
2022/11/28 05:24:22;;;;;;;7.63;4.67;;;7.60;99.90;;;;;;4995178;28;20154;-70
2022/11/28 05:26:48;;;;;;;6.72;4.65;;;7.60;99.90;;;;;;4992323;28;20038;-70
2022/11/28 05:29:14;;;;;;;7.93;4.53;;;7.60;99.90;;;;;;4992364;28;20042;-70
2022/11/28 05:31:39;;;;;;;7.23;4.40;;;7.60;99.90;;;;;;4961036;28;20193;-71
2022/11/28 05:34:05;;;;;;;8.97;5.33;;;7.60;99.90;;;;;;4991818;28;20102;-70
2022/11/28 05:36:31;;;;;;;8.87;5.10;;;7.60;99.90;;;;;;4979621;28;20045;-70
2022/11/28 05:38:56;;;;;;;10.40;5.07;;;7.60;99.90;;;;;;4986826;28;20050;-70
2022/11/28 05:41:28;;;;;;;8.40;4.47;;;7.60;99.90;;;;;;4974662;28;20497;-71
2022/11/28 05:43:55;;;;;;;8.27;4.55;;;7.60;99.90;;;;;;4991600;28;20041;-70
2022/11/28 05:46:21;;;;;;;9.57;5.28;;;7.60;99.90;;;;;;4981064;28;20042;-71
2022/11/28 05:48:47;;;;;;;7.83;4.97;;;7.60;99.90;;;;;;4994302;28;20059;-70
2022/11/28 05:51:12;;;;;;;7.20;4.50;;;7.60;99.90;;;;;;4978423;28;20046;-71
2022/11/28 05:53:38;;;;;;;6.57;4.35;;;7.60;99.90;;;;;;4974571;28;20141;-70
2022/11/28 05:56:13;;;;;;;6.23;3.83;;;7.60;99.90;;;;;;4977034;28;20039;-70
2022/11/28 05:58:39;;;;;;;7.05;3.85;;;7.60;99.90;;;;;;4996127;28;20133;-70
2022/11/28 06:01:22;;;;;;;6.93;4.37;;;7.70;99.90;;;;;;4979972;28;20030;-70
2022/11/28 06:03:49;;;;;;;7.65;4.25;;;7.70;99.90;;;;;;4987384;28;20322;-70
2022/11/28 06:06:17;;;;;;;8.15;4.07;;;7.70;99.90;;;;;;4976692;28;20588;-70
2022/11/28 06:08:44;;;;;;;5.85;3.60;;;7.70;99.90;;;;;;4981902;28;20074;-70
2022/11/28 06:11:13;;;;;;;7.47;4.38;;;7.70;99.90;;;;;;4987740;28;20037;-70
2022/11/28 06:13:40;;;;;;;8.05;4.07;;;7.70;99.90;;;;;;4988913;28;20113;-71
2022/11/28 06:16:09;;;;;;;6.72;3.80;;;7.70;99.90;;;;;;4986851;28;20409;-70
2022/11/28 06:18:35;;;;;;;6.43;4.10;;;7.70;99.90;;;;;;4978769;28;20121;-70
2022/11/28 06:21:02;;;;;;;8.02;4.53;;;7.70;99.90;;;;;;4977718;28;20050;-70
2022/11/28 06:23:28;;;;;;;6.63;4.03;;;7.70;99.90;;;;;;4984256;28;20132;-71
2022/11/28 06:25:54;;;;;;;7.97;3.63;;;7.70;99.90;;;;;;4982971;28;20042;-70
2022/11/28 06:28:19;;;;;;;5.83;3.53;;;7.70;99.90;;;;;;4972637;28;20038;-70
2022/11/28 06:30:45;;;;;;;7.23;4.10;;;7.80;99.90;;;;;;4979177;28;20034;-71
2022/11/28 06:33:10;;;;;;;7.60;4.50;;;7.80;99.90;;;;;;4963788;28;20086;-71
2022/11/28 06:35:36;;;;;;;7.43;4.10;;;7.80;99.90;;;;;;4980513;28;20042;-70
2022/11/28 06:38:02;;;;;;;10.40;4.80;;;7.80;99.90;;;;;;4991436;28;20313;-71
2022/11/28 06:40:27;;;;;;;10.27;4.03;;;7.80;99.90;;;;;;4977654;28;20042;-70
2022/11/28 06:42:53;;;;;;;8.27;4.73;;;7.80;99.90;;;;;;4974350;28;20478;-70
2022/11/28 06:45:19;;;;;;;11.33;4.20;;;7.80;99.90;;;;;;4984310;28;20074;-73
2022/11/28 06:47:44;;;;;;;6.40;3.63;;;7.80;99.90;;;;;;4993918;28;20462;-72
2022/11/28 06:50:10;;;;;;;6.53;4.03;;;7.80;99.90;;;;;;4983470;28;20093;-72
2022/11/28 06:52:35;;;;;;;7.47;4.20;;;7.80;99.90;;;;;;4981078;28;20041;-73
2022/11/28 06:55:01;;;;;;;6.03;3.53;;;7.80;99.90;;;;;;4986817;28;20132;-73
2022/11/28 06:57:27;;;;;;;7.73;5.50;;;7.90;99.90;;;;;;4985776;28;20041;-76
2022/11/28 06:59:52;;;;;;;5.43;3.67;;;7.80;99.90;;;;;;4985151;28;20286;-71
2022/11/28 07:02:18;;;;;;;10.37;3.90;;;7.90;99.90;;;;;;4975757;28;20041;-73
2022/11/28 07:04:44;;;;;;;7.47;4.07;;;7.90;99.90;;;;;;4994888;28;20096;-76
2022/11/28 07:07:09;;;;;;;5.90;3.63;;;7.90;99.90;;;;;;4974954;28;20041;-76
2022/11/28 07:09:35;;;;;;;6.13;3.40;;;7.90;99.90;;;;;;4979635;28;20038;-76
2022/11/28 07:12:00;;;;;;;6.70;3.80;;;7.90;99.90;;;;;;4978436;28;20042;-71
2022/11/28 07:14:26;;;;;;;5.97;3.67;;;7.90;99.90;;;;;;4991629;28;20053;-70
2022/11/28 07:16:52;;;;;;;5.97;3.73;;;7.90;99.90;;;;;;4984531;28;20125;-71
2022/11/28 07:19:21;;;;;;;4.83;3.13;;;7.90;99.90;;;;;;4988294;28;20114;-71
2022/11/28 07:21:48;;;;;;;6.65;3.95;;;7.90;99.90;;;;;;4978638;28;20311;-71
2022/11/28 07:24:15;;;;;;;6.07;3.35;;;7.90;99.90;;;;;;4978296;28;20628;-70
2022/11/28 07:26:41;;;;;;;7.25;3.88;;;7.90;99.90;;;;;;4992703;28;20061;-71
2022/11/28 07:29:08;;;;;;;7.60;3.67;;;7.90;99.90;;;;;;4980477;28;20039;-70
2022/11/28 07:31:36;;;;;;;7.55;3.60;;;8.00;99.90;;;;;;4992118;28;20037;-71
2022/11/28 07:34:04;;;;;;;5.32;3.25;;;7.90;99.90;;;;;;4983416;28;20042;-71
2022/11/28 07:36:30;;;;;;;4.93;3.30;;;8.00;99.90;;;;;;4994985;28;20082;-70
2022/11/28 07:38:58;;;;;;;5.70;3.37;;;7.90;99.90;;;;;;4984474;28;20093;-70
2022/11/28 07:41:25;;;;;;;6.68;3.45;;;8.00;99.90;;;;;;4981917;28;20432;-71
2022/11/28 07:43:54;;;;;;;6.15;2.90;;;8.00;99.90;;;;;;4992328;28;20026;-71
2022/11/28 07:46:19;;;;;;;6.45;3.65;;;8.00;99.90;;;;;;4978186;28;20481;-71
2022/11/28 07:48:46;;;;;;;5.83;3.03;;;8.00;99.90;;;;;;4984496;28;20049;-71
2022/11/28 07:51:15;;;;;;;5.90;3.13;;;8.00;99.90;;;;;;4977935;28;20061;-71
2022/11/28 07:53:41;;;;;;;5.63;3.60;;;8.00;99.90;;;;;;4985062;28;20097;-70
2022/11/28 07:56:12;;;;;;;8.07;3.65;;;8.00;99.90;;;;;;4972061;28;20034;-71
2022/11/28 07:58:38;;;;;;;6.20;3.03;;;8.00;99.90;;;;;;4979008;28;20449;-71
2022/11/28 08:01:15;;;;;;;5.30;2.60;;;8.00;99.90;;;;;;4976923;28;20045;-71
2022/11/28 08:03:40;;;;;;;;;;;8.00;99.90;;;;;;4980276;28;20124;-71
2022/11/28 08:06:07;;;;;;;5.75;2.90;;;8.00;99.90;;;;;;4983813;28;20016;-71
2022/11/28 08:08:34;;;;;;;7.47;3.28;;;8.00;99.90;;;;;;4983659;28;20084;-71
2022/11/28 08:11:02;;;;;;;6.32;3.55;;;8.00;99.90;;;;;;4982016;28;20035;-71
2022/11/28 08:13:28;;;;;;;6.15;3.40;;;8.00;99.90;;;;;;4974918;28;20120;-71
2022/11/28 08:15:54;;;;;;;6.32;3.67;;;8.00;99.90;;;;;;4978073;28;20042;-71
2022/11/28 08:18:20;;;;;;;5.18;3.13;;;8.10;99.90;;;;;;4987611;28;20043;-71
2022/11/28 08:20:45;;;;;;;7.53;3.92;;;8.10;99.90;;;;;;4990945;28;20042;-71
2022/11/28 08:23:11;;;;;;;5.63;3.40;;;8.10;99.90;;;;;;4981391;28;20440;-71
2022/11/28 08:25:36;;;;;;;5.57;3.17;;;8.00;99.90;;;;;;4980861;28;20297;-71
2022/11/28 08:28:02;;;;;;;5.40;2.97;;;8.10;99.90;;;;;;4976734;28;20161;-71
2022/11/28 08:30:28;;;;;;;5.05;2.72;;;8.10;99.90;;;;;;4977175;28;20429;-71
2022/11/28 08:32:54;;;;;;;6.07;3.20;;;8.10;99.90;;;;;;4985735;28;20038;-71
2022/11/28 08:35:20;;;;;;;6.17;2.87;;;8.20;99.90;;;;;;4993738;28;20476;-71
2022/11/28 08:37:46;;;;;;;6.18;2.75;;;8.10;99.90;;;;;;4989096;28;20046;-71
2022/11/28 08:40:12;;;;;;;5.83;2.83;;;8.10;99.90;;;;;;4975767;28;20113;-72
2022/11/28 08:42:38;;;;;;;;;;;8.10;99.90;;;;;;4977484;28;20046;-71
2022/11/28 08:45:05;;;;;;;5.05;2.78;;;8.10;99.90;;;;;;4982457;28;20449;-70
2022/11/28 08:47:31;;;;;;;6.97;3.03;;;8.10;99.90;;;;;;4983058;28;20038;-71
2022/11/28 08:49:57;;;;;;;6.93;3.40;;;8.10;99.90;;;;;;4975909;28;20078;-71
2022/11/28 08:52:23;;;;;;;4.80;2.73;;;8.10;99.90;;;;;;4976523;28;20093;-71
2022/11/28 08:54:49;;;;;;;6.50;3.13;;;8.10;99.90;;;;;;4978293;28;20054;-71
2022/11/28 08:57:14;;;;;;;6.47;3.80;;;8.20;99.90;;;;;;4985021;28;20492;-71
2022/11/28 08:59:40;;;;;;;7.70;4.10;;;8.20;99.90;;;;;;4974947;28;20435;-71
2022/11/28 09:02:07;;;;;;;7.00;3.63;;;8.20;99.90;;;;;;4987672;28;20049;-71
2022/11/28 09:04:33;;;;;;;8.45;4.55;;;8.20;99.90;;;;;;4983224;28;20046;-71
2022/11/28 09:06:59;;;;;;;6.80;3.83;;;8.30;99.90;;;;;;4985136;28;20046;-71
2022/11/28 09:09:24;;;;;;;7.03;3.83;;;8.20;99.90;;;;;;4980678;28;20042;-71
2022/11/28 09:11:50;;;;;;;7.37;4.23;;;8.20;99.90;;;;;;4979850;28;20483;-71
2022/11/28 09:14:15;;;;;;;8.30;4.43;;;8.30;99.90;;;;;;4979336;28;20056;-71
2022/11/28 09:16:41;;;;;;;8.30;4.50;;;8.30;99.90;;;;;;4977451;28;20110;-70
2022/11/28 09:19:08;;;;;;;11.80;5.07;;;8.30;99.90;;;;;;4976017;28;20046;-71
2022/11/28 09:21:33;;;;;;;;;;;8.30;99.90;;;;;;4981623;28;20130;-71
2022/11/28 09:23:59;;;;;;;8.38;4.75;;;8.30;99.90;;;;;;4978785;28;20008;-72
2022/11/28 09:26:25;;;;;;;8.57;4.80;;;8.30;99.90;;;;;;4978566;28;20041;-71
2022/11/28 09:28:53;;;;;;;9.05;4.80;;;8.30;99.90;;;;;;4963307;28;20474;-71
2022/11/28 09:31:19;;;;;;;8.88;5.00;;;8.30;99.90;;;;;;4979763;28;20054;-71
2022/11/28 09:33:46;;;;;;;9.52;4.78;;;8.40;99.90;;;;;;4973386;28;20235;-72
2022/11/28 09:36:13;;;;;;;14.02;5.55;;;8.40;99.90;;;;;;4976135;28;20070;-71
2022/11/28 09:38:39;;;;;;;11.18;5.80;;;8.40;99.90;;;;;;4975827;28;20051;-71
2022/11/28 09:41:42;;;;;;;12.18;5.85;;;8.40;99.90;;;;;;4985879;28;20120;-71
2022/11/28 09:44:40;;;;;;;11.30;5.57;;;8.40;99.90;;;;;;4978779;28;20129;-71
2022/11/28 09:47:14;;;;;;;10.27;5.55;;;8.40;99.90;;;;;;4985276;28;20539;-71
2022/11/28 09:49:51;;;;;;;11.52;6.03;;;8.50;99.90;;;;;;4983384;28;20193;-71
2022/11/28 09:52:29;;;;;;;12.45;6.18;;;8.50;99.90;;;;;;4985459;28;20407;-71
2022/11/28 09:55:04;;;;;;;16.33;6.07;;;8.50;99.90;;;;;;4976706;28;20042;-73
2022/11/28 09:57:44;;;;;;;13.23;6.15;;;8.50;99.90;;;;;;4980047;28;20053;-71
2022/11/28 10:00:17;;;;;;;13.32;6.00;;;8.50;99.90;;;;;;4976677;28;20039;-71
2022/11/28 10:03:01;;;;;;;12.23;6.20;;;8.50;99.90;;;;;;4983513;28;20121;-79
2022/11/28 10:05:47;;;;;;;10.90;5.68;;;8.50;99.90;;;;;;4968433;28;20077;-71
2022/11/28 10:08:27;;;;;;;13.10;6.90;;;8.60;99.90;;;;;;4977128;28;20158;-71
2022/11/28 10:11:13;;;;;;;10.65;5.75;;;8.60;99.90;;;;;;4975827;28;20463;-70
2022/11/28 10:13:56;;;;;;;10.98;5.32;;;8.60;99.90;;;;;;4969595;28;20445;-71
2022/11/28 10:16:35;;;;;;;12.82;6.22;;;8.60;99.90;;;;;;4985410;28;20484;-70
2022/11/28 10:19:09;;;;;;;12.85;5.47;;;8.60;99.90;;;;;;4985763;28;20384;-71
2022/11/28 10:21:37;;;;;;;10.35;5.57;;;8.60;99.90;;;;;;4975440;28;20051;-71
2022/11/28 10:24:13;;;;;;;12.23;5.32;;;8.60;99.90;;;;;;4980727;28;20077;-71
2022/11/28 10:26:52;;;;;;;10.50;5.30;;;8.60;99.90;;;;;;4974870;28;20428;-71
2022/11/28 10:29:42;;;;;;;11.98;5.53;;;8.60;99.90;;;;;;4987308;28;20050;-70
2022/11/28 10:32:14;;;;;;;7.68;4.38;;;8.60;99.90;;;;;;4996210;28;20435;-71
2022/11/28 10:34:44;;;;;;;10.32;4.78;;;8.70;99.90;;;;;;4984748;28;20127;-71
2022/11/28 10:37:20;;;;;;;8.13;4.50;;;8.70;99.90;;;;;;5010155;23;20061;-67
2022/11/28 10:39:46;;;;;;;10.48;4.53;;;8.70;99.90;;;;;;5005114;28;20042;-67
2022/11/28 10:42:34;;;;;;;7.80;4.13;;;8.70;99.90;;;;;;4984723;28;20117;-67
2022/11/28 10:45:15;;;;;;;8.25;4.45;;;8.70;99.90;;;;;;5012935;28;20506;-76
2022/11/28 10:47:49;;;;;;;7.80;4.15;;;8.70;99.90;;;;;;5006133;28;20534;-75
2022/11/28 10:51:03;;;;;;;7.40;4.32;;;8.70;99.90;;;;;;5004093;28;20042;-70
2022/11/28 10:53:50;;;;;;;7.53;3.92;;;8.80;99.90;;;;;;5002019;28;20157;-70
2022/11/28 10:56:40;;;;;;;6.97;4.03;;;8.80;99.90;;;;;;5009893;28;20068;-71
2022/11/28 10:59:28;;;;;;;8.15;4.60;;;8.80;99.90;;;;;;5005213;28;20256;-71
2022/11/28 11:01:55;;;;;;;9.45;4.18;;;8.80;99.90;;;;;;5008973;28;20487;-69
2022/11/28 11:04:21;;;;;;;;;;;8.80;99.90;;;;;;5016612;28;20042;-72
2022/11/28 11:07:24;;;;;;;7.75;3.95;;;8.80;99.90;;;;;;5035269;28;19975;-69
2022/11/28 11:09:51;;;;;;;8.27;4.10;;;8.80;99.90;;;;;;5012431;28;20463;-69
2022/11/28 11:12:22;;;;;;;8.35;3.83;;;8.90;99.90;;;;;;5009178;28;20061;-70
2022/11/28 11:14:48;;;;;;;6.75;3.92;;;8.90;99.90;;;;;;5016174;28;20049;-74
2022/11/28 11:17:32;;;;;;;7.57;4.03;;;8.90;99.90;;;;;;5016564;28;20042;-68
2022/11/28 11:19:58;;;;;;;7.18;3.60;;;8.90;99.90;;;;;;5007150;28;20107;-68
2022/11/28 11:22:27;;;;;;;6.28;3.72;;;8.90;99.90;;;;;;5014481;28;20399;-68
2022/11/28 11:25:14;;;;;;;6.40;3.78;;;9.00;99.90;;;;;;5009340;28;20196;-68
2022/11/28 11:28:23;;;;;;;6.32;3.65;;;9.00;99.90;;;;;;5006795;28;20893;-68
2022/11/28 11:30:57;;;;;;;;;;;9.00;99.90;;;;;;5000493;28;20486;-68
2022/11/28 11:33:25;;;;;;;6.82;3.45;;;9.00;99.90;;;;;;5009151;28;20012;-68
2022/11/28 11:35:51;;;;;;;7.65;4.00;;;9.00;99.90;;;;;;5012882;28;20046;-68
2022/11/28 11:38:20;;;;;;;11.02;3.50;;;9.00;99.90;;;;;;5007136;28;20048;-68
2022/11/28 11:40:47;;;;;;;6.72;3.70;;;9.00;99.90;;;;;;5009441;28;20492;-69
2022/11/28 11:43:29;;;;;;;6.22;3.70;;;9.10;99.90;;;;;;4983255;28;20092;-68
2022/11/28 11:46:12;;;;;;;9.02;4.20;;;9.00;99.90;;;;;;5001309;28;20116;-68
2022/11/28 11:48:42;;;;;;;7.00;3.88;;;9.10;99.90;;;;;;4995674;28;20053;-68
2022/11/28 11:51:30;;;;;;;6.07;3.53;;;9.10;99.90;;;;;;5017775;28;20034;-68
2022/11/28 11:53:59;;;;;;;6.80;3.45;;;9.10;99.90;;;;;;5000547;28;20044;-68
2022/11/28 11:56:27;;;;;;;5.47;3.35;;;9.10;99.90;;;;;;5006474;28;20041;-68
2022/11/28 11:58:54;;;;;;;8.27;3.95;;;9.20;99.90;;;;;;5006021;28;20042;-68
2022/11/28 12:01:21;;;;;;;7.65;3.55;;;9.10;99.90;;;;;;5005787;28;20364;-68
2022/11/28 12:03:56;;;;;;;8.32;4.03;;;9.10;99.90;;;;;;5008214;28;20264;-69
2022/11/28 12:06:31;;;;;;;9.60;4.80;;;9.10;99.90;;;;;;5011702;28;20044;-69
2022/11/28 12:09:15;;;;;;;8.70;4.78;;;9.10;99.90;;;;;;5017665;28;20540;-68
2022/11/28 12:11:47;;;;;;;8.48;4.15;;;9.10;99.90;;;;;;5006941;28;20049;-69
2022/11/28 12:14:41;;;;;;;8.35;4.60;;;9.20;99.90;;;;;;5004640;28;20104;-69
2022/11/28 12:17:36;;;;;;;7.68;4.20;;;9.10;99.90;;;;;;5025439;28;20683;-69
2022/11/28 12:20:23;;;;;;;9.05;4.05;;;9.20;99.90;;;;;;5011884;28;20056;-68
2022/11/28 12:22:54;;;;;;;9.27;4.55;;;9.10;99.90;;;;;;5010295;28;20468;-68
2022/11/28 12:25:33;;;;;;;10.20;4.82;;;9.10;99.90;;;;;;5002346;28;20100;-70
2022/11/28 12:28:12;;;;;;;11.90;5.03;;;9.20;99.90;;;;;;5014405;28;20393;-70
2022/11/28 12:30:46;;;;;;;11.93;5.22;;;9.10;99.90;;;;;;5008767;28;20649;-70
2022/11/28 12:33:25;;;;;;;11.15;5.53;;;9.10;99.90;;;;;;5008963;28;20041;-70
2022/11/28 12:36:24;;;;;;;10.48;5.50;;;9.10;99.90;;;;;;5008579;28;20392;-70
2022/11/28 12:39:18;;;;;;;10.65;5.25;;;9.20;99.90;;;;;;5007987;28;20174;-70
2022/11/28 12:41:58;;;;;;;11.55;5.30;;;9.20;99.90;;;;;;5006533;28;20432;-70
2022/11/28 12:44:36;;;;;;;10.10;5.57;;;9.20;99.90;;;;;;5005506;28;20415;-70
2022/11/28 12:47:40;;;;;;;14.07;6.18;;;9.10;99.90;;;;;;5002990;28;20151;-70
2022/11/28 12:50:29;;;;;;;12.48;5.68;;;9.20;99.90;;;;;;5006420;28;20050;-70
2022/11/28 12:53:17;;;;;;;11.82;6.10;;;9.10;99.90;;;;;;5008535;28;20041;-70
2022/11/28 12:55:53;;;;;;;13.40;5.82;;;9.20;99.90;;;;;;5006166;28;20186;-70
2022/11/28 12:58:44;;;;;;;11.75;5.82;;;9.10;99.90;;;;;;4990774;28;20053;-70
2022/11/28 13:01:41;;;;;;;11.10;5.80;;;9.20;99.90;;;;;;5002302;28;20048;-70
2022/11/28 13:04:33;;;;;;;9.85;4.97;;;9.20;99.90;;;;;;4999557;28;20041;-70
2022/11/28 13:07:09;;;;;;;12.82;6.20;;;9.10;99.90;;;;;;5003423;28;20076;-70
2022/11/28 13:09:57;;;;;;;13.47;5.83;;;9.20;99.90;;;;;;5008841;28;20184;-70
2022/11/28 13:13:01;;;;;;;11.38;5.38;;;9.20;99.90;;;;;;5004877;28;20246;-70
2022/11/28 13:15:50;;;;;;;11.57;5.75;;;9.10;99.90;;;;;;4961562;28;20157;-70
2022/11/28 13:18:27;;;;;;;13.95;6.25;;;9.10;99.90;;;;;;5002838;28;20043;-70
2022/11/28 13:21:26;;;;;;;13.40;6.43;;;9.10;99.90;;;;;;5004231;28;20168;-70
2022/11/28 13:24:11;;;;;;;15.05;5.72;;;9.20;99.90;;;;;;5002664;28;20060;-70